Flight Track Log - Related Links

Times and Time Zones

All times are in EDT time to prevent confusion due to time zone crossing. See the DAL863 flight status page for this flight to view local times or setup timezone preferences in your user account.


Time Position Orientation Groundspeed Altitude Reporting Facility
EDT Latitude Longitude Course Direction KTS MPH feet Rate Location/Type
Fri 12:18:12 PM 40.6340 -73.7860 120° Southeast 160 184 200  Level FlightAware ADS-B
Fri 12:18:22 PM 40.6290 -73.7790 133° Southeast 161 185 700 1,920 Climbing FlightAware ADS-B
Fri 12:18:37 PM 40.6180 -73.7750 165° South 184 212 1,000 1,333 Climbing FlightAware ADS-B
Fri 12:19:07 PM 40.5880 -73.7700 173° South 234 269 1,700 1,964 Climbing FlightAware ADS-B
Fri 12:19:32 PM 40.5580 -73.7790 193° South 262 302 2,800 2,727 Climbing FlightAware ADS-B
Fri 12:20:02 PM 40.5300 -73.8080 218° Southwest 282 325 4,200 2,836 Climbing FlightAware ADS-B
Fri 12:20:27 PM 40.5140 -73.8430 239° Southwest 288 331 5,400 2,850 Climbing FlightAware ADS-B
Fri 12:20:42 PM 40.5020 -73.8640 233° Southwest 291 335 6,100 3,333 Climbing FlightAware ADS-B
Fri 12:21:12 PM 40.4790 -73.9100 237° Southwest 293 337 7,900 3,300 Climbing FlightAware ADS-B
Fri 12:21:42 PM 40.4570 -73.9570 238° Southwest 301 346 9,400 2,197 Climbing FlightAware ADS-B
Fri 12:22:23 PM 40.4232 -74.0284 238° Southwest 344 396 10,500 1,636 Climbing FlightAware ADS-B
Fri 12:22:48 PM 40.4019 -74.0738 238° Southwest 366 421 11,200 1,607 Climbing FlightAware ADS-B
Fri 12:23:19 PM 40.3727 -74.1350 238° Southwest 390 449 12,000 2,032 Climbing FlightAware ADS-B
Fri 12:23:50 PM 40.3436 -74.1969 238° Southwest 399 459 13,300 2,464 Climbing FlightAware ADS-B
Fri 12:24:15 PM 40.3198 -74.2494 239° Southwest 410 472 14,300 2,333 Climbing FlightAware ADS-B
Fri 12:24:26 PM 40.3133 -74.2745 251° West 413 475 14,700 2,118 Climbing FlightAware ADS-B
Fri 12:24:32 PM 40.3115 -74.2906 262° West 410 472 14,900 2,167 Climbing FlightAware ADS-B
Fri 12:25:02 PM 40.3060 -74.3633 264° West 414 476 16,000 2,190 Climbing FlightAware ADS-B
Fri 12:25:35 PM 40.2956 -74.4470 261° West 425 489 17,200 2,344 Climbing FlightAware ADS-B
Fri 12:26:06 PM 40.2846 -74.5240 259° West 424 488 18,500 2,262 Climbing FlightAware ADS-B
Fri 12:26:36 PM 40.2751 -74.6028 261° West 431 496 19,500 1,935 Climbing FlightAware ADS-B
Fri 12:27:08 PM 40.2659 -74.6856 262° West 437 503 20,500 1,810 Climbing FlightAware ADS-B
Fri 12:27:39 PM 40.2567 -74.7673 262° West 444 511 21,400 1,754 Climbing FlightAware ADS-B
Fri 12:28:13 PM 40.2468 -74.8566 262° West 448 516 22,400 1,727 Climbing FlightAware ADS-B
Fri 12:28:45 PM 40.2370 -74.9442 262° West 456 525 23,300 1,839 Climbing FlightAware ADS-B
Fri 12:29:15 PM 40.2279 -75.0261 262° West 455 524 24,300 1,900 Climbing FlightAware ADS-B
Fri 12:29:45 PM 40.2186 -75.1087 262° West 458 527 25,200 1,672 Climbing FlightAware ADS-B
Fri 12:30:16 PM 40.2092 -75.1925 262° West 459 528 26,000 1,475 Climbing FlightAware ADS-B
Fri 12:30:46 PM 40.1998 -75.2753 262° West 463 533 26,700 1,333 Climbing FlightAware ADS-B
Fri 12:31:19 PM 40.1895 -75.3657 262° West 468 539 27,400 1,238 Climbing FlightAware ADS-B
Fri 12:31:49 PM 40.1797 -75.4510 261° West 472 543 28,000 1,313 Climbing FlightAware ADS-B
Fri 12:32:23 PM 40.1686 -75.5460 261° West 473 544 28,800 1,970 Climbing FlightAware ADS-B
Fri 12:32:56 PM 40.1576 -75.6397 261° West 460 529 30,200 2,091 Climbing FlightAware ADS-B
Fri 12:33:29 PM 40.1472 -75.7284 261° West 456 525 31,100 1,343 Climbing FlightAware ADS-B
Fri 12:34:03 PM 40.1363 -75.8208 261° West 460 529 31,700 1,219 Climbing FlightAware ADS-B
Fri 12:34:33 PM 40.1265 -75.9035 261° West 459 528 32,400 1,475 Climbing FlightAware ADS-B
Fri 12:35:04 PM 40.1164 -75.9874 261° West 452 520 33,200 1,594 Climbing FlightAware ADS-B
Fri 12:35:37 PM 40.1058 -76.0753 261° West 446 513 34,100 1,585 Climbing FlightAware ADS-B
Fri 12:35:57 PM 40.1044 -76.1280 268° West 443 510 34,600 1,320 Climbing FlightAware ADS-B
Fri 12:36:27 PM 40.1085 -76.2082 274° West 438 504 35,200 986 Climbing FlightAware ADS-B
Fri 12:37:10 PM 40.1120 -76.3207 272° West 440 506 35,800 658 Climbing FlightAware ADS-B
Fri 12:37:40 PM 40.1130 -76.4009 271° West 442 509 36,000 194 Climbing FlightAware ADS-B
Fri 12:38:12 PM 40.1136 -76.4854 271° West 443 510 36,000  Level FlightAware ADS-B
Fri 12:38:33 PM 40.1147 -76.5422 271° West 443 510 36,000  Level FlightAware ADS-B
Fri 12:39:08 PM 40.1183 -76.6378 273° West 445 512 36,000  Level FlightAware ADS-B
Fri 12:39:39 PM 40.1213 -76.7192 273° West 444 511 36,000  Level FlightAware ADS-B
Fri 12:40:48 PM 40.1274 -76.9042 273° West 446 513 36,000  Level FlightAware ADS-B
Fri 12:41:32 PM 40.1310 -77.0248 272° West 449 517 36,000  Level FlightAware ADS-B
Fri 12:42:02 PM 40.1335 -77.1063 272° West 448 516 36,000  Level FlightAware ADS-B
Fri 12:42:36 PM 40.1361 -77.1958 272° West 447 514 36,000  Level FlightAware ADS-B
Fri 12:43:06 PM 40.1385 -77.2768 272° West 446 513 36,000  Level FlightAware ADS-B
Fri 12:43:58 PM 40.1425 -77.4163 272° West 444 511 36,000  Level FlightAware ADS-B
Fri 12:45:13 PM 40.1478 -77.6163 272° West 442 509 36,000  Level FlightAware ADS-B
Fri 12:45:48 PM 40.1502 -77.7092 272° West 443 510 36,000  Level FlightAware ADS-B
Fri 12:46:23 PM 40.1526 -77.8030 272° West 443 510 36,000  Level FlightAware ADS-B
Fri 12:47:01 PM 40.1550 -77.9053 272° West 445 512 36,000  Level FlightAware ADS-B
Fri 12:47:40 PM 40.1574 -78.0112 272° West 445 512 36,000  Level FlightAware ADS-B
Fri 12:48:18 PM 40.1596 -78.1127 272° West 445 512 36,000  Level FlightAware ADS-B
Fri 12:48:53 PM 40.1616 -78.2057 272° West 444 511 36,000  Level FlightAware ADS-B
Fri 12:49:27 PM 40.1630 -78.2750 272° West 444 511 36,000  Level FlightAware ADS-B
Fri 12:50:07 PM 40.1650 -78.3760 272° West 443 510 36,000  Level FlightAware ADS-B
Fri 12:50:52 PM 40.1680 -78.5060 272° West 441 507 36,000  Level FlightAware ADS-B
Fri 12:51:32 PM 40.1690 -78.6070 271° West 440 506 36,000  Level FlightAware ADS-B
Fri 12:52:22 PM 40.1720 -78.7500 272° West 438 504 36,000  Level FlightAware ADS-B
Fri 12:53:07 PM 40.1730 -78.8640 271° West 436 502 36,000  Level FlightAware ADS-B
Fri 12:53:52 PM 40.1750 -78.9820 271° West 436 502 36,000  Level FlightAware ADS-B
Fri 12:54:32 PM 40.1760 -79.0710 271° West 436 502 36,000  Level FlightAware ADS-B
Fri 12:55:27 PM 40.1790 -79.2310 271° West 434 499 36,000  Level FlightAware ADS-B
Fri 12:56:12 PM 40.1800 -79.3580 271° West 433 498 36,000  Level FlightAware ADS-B
Fri 12:56:52 PM 40.1810 -79.4550 271° West 434 499 36,000  Level FlightAware ADS-B
Fri 12:57:32 PM 40.1820 -79.5620 271° West 434 499 36,000  Level FlightAware ADS-B
Fri 12:58:17 PM 40.1830 -79.6880 271° West 434 499 36,000  Level FlightAware ADS-B
Fri 12:58:57 PM 40.1840 -79.7930 271° West 435 501 36,000  Level FlightAware ADS-B
Fri 12:59:42 PM 40.1850 -79.9050 271° West 435 501 36,000  Level FlightAware ADS-B
Fri 01:00:22 PM 40.1850 -80.0120 270° West 436 502 36,000  Level FlightAware ADS-B
Fri 01:01:02 PM 40.1860 -80.1150 271° West 435 501 36,000  Level FlightAware ADS-B
Fri 01:01:47 PM 40.1860 -80.2400 270° West 434 499 36,000  Level FlightAware ADS-B
Fri 01:02:27 PM 40.1870 -80.3410 271° West 433 498 36,000  Level FlightAware ADS-B
Fri 01:03:07 PM 40.1870 -80.4460 270° West 432 497 36,000  Level FlightAware ADS-B
Fri 01:03:47 PM 40.1870 -80.5500 270° West 431 496 36,000  Level FlightAware ADS-B
Fri 01:04:32 PM 40.1870 -80.6610 270° West 430 495 36,000  Level FlightAware ADS-B
Fri 01:05:17 PM 40.1870 -80.7800 270° West 430 495 36,000  Level FlightAware ADS-B
Fri 01:05:57 PM 40.1870 -80.8870 270° West 430 495 36,000  Level FlightAware ADS-B
Fri 01:06:37 PM 40.1860 -80.9910 269° West 429 494 36,000  Level FlightAware ADS-B
Fri 01:07:22 PM 40.1860 -81.1060 270° West 430 495 36,000  Level FlightAware ADS-B
Fri 01:08:02 PM 40.1850 -81.2080 269° West 429 494 36,000  Level FlightAware ADS-B
Fri 01:08:47 PM 40.1850 -81.3290 270° West 430 495 36,000  Level FlightAware ADS-B
Fri 01:09:27 PM 40.1840 -81.4310 269° West 430 495 36,000  Level FlightAware ADS-B
Fri 01:10:12 PM 40.1830 -81.5420 269° West 430 495 36,000  Level FlightAware ADS-B
Fri 01:10:52 PM 40.1820 -81.6500 269° West 430 495 36,000  Level FlightAware ADS-B
Fri 01:11:32 PM 40.1810 -81.7550 269° West 430 495 36,000  Level FlightAware ADS-B
Fri 01:12:12 PM 40.1800 -81.8570 269° West 431 496 36,000  Level FlightAware ADS-B
Fri 01:12:57 PM 40.1790 -81.9750 269° West 431 496 36,000  Level FlightAware ADS-B
Fri 01:13:37 PM 40.1780 -82.0770 269° West 431 496 36,000  Level FlightAware ADS-B
Fri 01:14:22 PM 40.1760 -82.1950 269° West 431 496 36,000  Level FlightAware ADS-B
Fri 01:15:02 PM 40.1750 -82.2970 269° West 431 496 36,000  Level FlightAware ADS-B
Fri 01:15:47 PM 40.1730 -82.4190 269° West 431 496 36,000  Level FlightAware ADS-B
Fri 01:16:27 PM 40.1710 -82.5220 269° West 430 495 36,000  Level FlightAware ADS-B
Fri 01:17:07 PM 40.1700 -82.6260 269° West 430 495 36,000  Level FlightAware ADS-B
Fri 01:17:52 PM 40.1680 -82.7400 269° West 430 495 36,000  Level FlightAware ADS-B
Fri 01:18:32 PM 40.1660 -82.8440 269° West 431 496 36,000  Level FlightAware ADS-B
Fri 01:19:17 PM 40.1630 -82.9630 268° West 431 496 36,000  Level FlightAware ADS-B
Fri 01:20:02 PM 40.1610 -83.0780 269° West 432 497 36,000  Level FlightAware ADS-B
Fri 01:20:42 PM 40.1590 -83.1820 269° West 432 497 36,000  Level FlightAware ADS-B
Fri 01:21:22 PM 40.1560 -83.2860 268° West 432 497 36,000  Level FlightAware ADS-B
Fri 01:22:07 PM 40.1530 -83.4030 268° West 433 498 36,000  Level FlightAware ADS-B
Fri 01:22:47 PM 40.1510 -83.5120 269° West 433 498 36,000  Level FlightAware ADS-B
Fri 01:23:27 PM 40.1480 -83.6060 268° West 434 499 36,000  Level FlightAware ADS-B
Fri 01:24:12 PM 40.1450 -83.7290 268° West 435 501 36,000  Level FlightAware ADS-B
Fri 01:24:52 PM 40.1420 -83.8360 268° West 436 502 36,000  Level FlightAware ADS-B
Fri 01:25:32 PM 40.1390 -83.9410 268° West 437 503 36,000  Level FlightAware ADS-B
Fri 01:26:17 PM 40.1360 -84.0620 268° West 438 504 36,000  Level FlightAware ADS-B
Fri 01:27:02 PM 40.1320 -84.1790 267° West 439 505 36,000  Level FlightAware ADS-B
Fri 01:27:42 PM 40.1290 -84.2820 268° West 439 505 36,000  Level FlightAware ADS-B
Fri 01:28:22 PM 40.1260 -84.3910 268° West 441 507 36,000  Level FlightAware ADS-B
Fri 01:29:07 PM 40.1210 -84.5140 267° West 441 507 36,000  Level FlightAware ADS-B
Fri 01:29:47 PM 40.1180 -84.6190 268° West 442 509 36,000  Level FlightAware ADS-B
Fri 01:30:27 PM 40.1140 -84.7250 267° West 444 511 36,000  Level FlightAware ADS-B
Fri 01:31:12 PM 40.1100 -84.8420 267° West 445 512 36,000  Level FlightAware ADS-B
Fri 01:32:07 PM 40.1040 -84.9910 267° West 448 516 36,000  Level FlightAware ADS-B
Fri 01:32:52 PM 40.1000 -85.1070 267° West 450 518 36,000  Level FlightAware ADS-B
Fri 01:33:32 PM 40.0950 -85.2210 267° West 452 520 36,000  Level FlightAware ADS-B
Fri 01:34:12 PM 40.0910 -85.3290 267° West 453 521 36,000  Level FlightAware ADS-B
Fri 01:34:57 PM 40.0860 -85.4570 267° West 454 522 36,000  Level FlightAware ADS-B
Fri 01:35:37 PM 40.0810 -85.5550 266° West 454 522 36,000  Level FlightAware ADS-B
Fri 01:36:17 PM 40.0770 -85.6730 268° West 454 522 36,000  Level FlightAware ADS-B
Fri 01:37:02 PM 40.0710 -85.7960 266° West 455 524 36,000  Level FlightAware ADS-B
Fri 01:37:42 PM 40.0660 -85.9010 266° West 455 524 36,000  Level FlightAware ADS-B
Fri 01:38:22 PM 40.0610 -86.0060 266° West 455 524 36,000  Level FlightAware ADS-B
Fri 01:39:07 PM 40.0550 -86.1360 267° West 453 521 36,000  Level FlightAware ADS-B
Fri 01:39:47 PM 40.0500 -86.2490 267° West 453 521 36,000  Level FlightAware ADS-B
Fri 01:40:32 PM 40.0440 -86.3620 266° West 454 522 36,000  Level FlightAware ADS-B
Fri 01:41:27 PM 40.0370 -86.5190 267° West 455 524 36,000  Level FlightAware ADS-B
Fri 01:42:02 PM 40.0310 -86.6180 266° West 457 526 36,000  Level FlightAware ADS-B
Fri 01:42:52 PM 40.0250 -86.7450 267° West 458 527 36,000  Level FlightAware ADS-B
Fri 01:43:47 PM 40.0160 -86.9060 266° West 457 526 36,000  Level FlightAware ADS-B
Fri 01:44:27 PM 40.0100 -87.0160 266° West 457 526 36,000  Level FlightAware ADS-B
Fri 01:45:12 PM 40.0030 -87.1370 266° West 456 525 36,000  Level FlightAware ADS-B
Fri 01:45:52 PM 39.9970 -87.2440 266° West 456 525 36,000  Level FlightAware ADS-B
Fri 01:46:22 PM 39.9920 -87.3260 265° West 456 525 36,000  Level FlightAware ADS-B
Fri 01:47:02 PM 39.9860 -87.4320 266° West 455 524 36,000  Level FlightAware ADS-B
Fri 01:47:42 PM 39.9800 -87.5450 266° West 455 524 36,000  Level FlightAware ADS-B
Fri 01:48:27 PM 39.9720 -87.6690 265° West 455 524 36,000  Level FlightAware ADS-B
Fri 01:49:07 PM 39.9650 -87.7810 265° West 455 524 36,000  Level FlightAware ADS-B
Fri 01:49:52 PM 39.9570 -87.9050 265° West 454 522 36,000  Level FlightAware ADS-B
Fri 01:50:27 PM 39.9510 -87.9960 265° West 454 522 36,000  Level FlightAware ADS-B
Fri 01:51:12 PM 39.9430 -88.1200 265° West 453 521 36,000  Level FlightAware ADS-B
Fri 01:51:57 PM 39.9350 -88.2440 265° West 453 521 36,000  Level FlightAware ADS-B
Fri 01:52:37 PM 39.9280 -88.3510 265° West 454 522 36,000  Level FlightAware ADS-B
Fri 01:53:22 PM 39.9200 -88.4710 265° West 453 521 36,000  Level FlightAware ADS-B
Fri 01:53:47 PM 39.9150 -88.5410 265° West 453 521 36,000  Level FlightAware ADS-B
Fri 01:54:27 PM 39.9080 -88.6480 265° West 453 521 36,000  Level FlightAware ADS-B
Fri 01:55:12 PM 39.9000 -88.7680 265° West 453 521 36,000  Level FlightAware ADS-B
Fri 01:55:52 PM 39.8920 -88.8780 265° West 453 521 36,000  Level FlightAware ADS-B
Fri 01:56:37 PM 39.8830 -89.0020 265° West 454 522 36,000  Level FlightAware ADS-B
Fri 01:57:17 PM 39.8750 -89.1130 265° West 454 522 36,000  Level FlightAware ADS-B
Fri 01:58:02 PM 39.8660 -89.2320 264° West 455 524 36,000  Level FlightAware ADS-B
Fri 01:58:42 PM 39.8580 -89.3340 264° West 456 525 36,000  Level FlightAware ADS-B
Fri 01:59:22 PM 39.8490 -89.4490 264° West 458 527 36,000  Level FlightAware ADS-B
Fri 02:00:07 PM 39.8400 -89.5740 265° West 458 527 36,000  Level FlightAware ADS-B
Fri 02:00:52 PM 39.8300 -89.6960 264° West 459 528 36,000  Level FlightAware ADS-B
Fri 02:01:32 PM 39.8210 -89.8090 264° West 458 527 36,000  Level FlightAware ADS-B
Fri 02:02:17 PM 39.8120 -89.9270 264° West 459 528 36,000  Level FlightAware ADS-B
Fri 02:02:57 PM 39.8030 -90.0380 264° West 459 528 36,000  Level FlightAware ADS-B
Fri 02:03:27 PM 39.7960 -90.1200 264° West 457 526 36,000  Level FlightAware ADS-B
Fri 02:04:07 PM 39.7870 -90.2300 264° West 457 526 36,000 300 Level FlightAware ADS-B
Fri 02:04:47 PM 39.7780 -90.3360 264° West 456 525 36,400 918 Climbing FlightAware ADS-B
Fri 02:05:32 PM 39.7670 -90.4580 263° West 453 521 37,300 720 Climbing FlightAware ADS-B
Fri 02:06:27 PM 39.7550 -90.6000 264° West 454 522 37,600 467 Climbing FlightAware ADS-B
Fri 02:07:02 PM 39.7460 -90.7080 264° West 449 517 38,000 300 Climbing FlightAware ADS-B
Fri 02:07:47 PM 39.7360 -90.8230 264° West 448 516 38,000  Level FlightAware ADS-B
Fri 02:08:32 PM 39.7250 -90.9380 263° West 449 517 38,000  Level FlightAware ADS-B
Fri 02:09:12 PM 39.7150 -91.0470 263° West 450 518 38,000  Level FlightAware ADS-B
Fri 02:09:52 PM 39.7060 -91.1500 264° West 451 519 38,000  Level FlightAware ADS-B
Fri 02:10:42 PM 39.6940 -91.2820 263° West 451 519 38,000  Level FlightAware ADS-B
Fri 02:11:37 PM 39.6800 -91.4340 263° West 453 521 38,000  Level FlightAware ADS-B
Fri 02:12:12 PM 39.6710 -91.5230 263° West 453 521 38,000  Level FlightAware ADS-B
Fri 02:12:52 PM 39.6600 -91.6430 263° West 456 525 38,000  Level FlightAware ADS-B
Fri 02:13:52 PM 39.6440 -91.7990 262° West 457 526 38,000  Level FlightAware ADS-B
Fri 02:14:32 PM 39.6340 -91.9130 264° West 458 527 38,000  Level FlightAware ADS-B
Fri 02:15:17 PM 39.6210 -92.0360 262° West 457 526 38,000  Level FlightAware ADS-B
Fri 02:16:02 PM 39.6090 -92.1590 263° West 456 525 38,000  Level FlightAware ADS-B
Fri 02:16:42 PM 39.5980 -92.2650 262° West 455 524 38,000  Level FlightAware ADS-B
Fri 02:17:27 PM 39.5870 -92.3790 263° West 455 524 38,000  Level FlightAware ADS-B
Fri 02:17:57 PM 39.5780 -92.4610 262° West 454 522 38,000  Level FlightAware ADS-B
Fri 02:18:42 PM 39.5660 -92.5730 262° West 454 522 38,000  Level FlightAware ADS-B
Fri 02:19:32 PM 39.5500 -92.7280 262° West 455 524 38,000  Level FlightAware ADS-B
Fri 02:20:12 PM 39.5390 -92.8370 263° West 456 525 38,000  Level FlightAware ADS-B
Fri 02:20:52 PM 39.5270 -92.9440 262° West 454 522 38,000  Level FlightAware ADS-B
Fri 02:21:37 PM 39.5150 -93.0610 262° West 453 521 38,000  Level FlightAware ADS-B
Fri 02:22:12 PM 39.5050 -93.1540 262° West 452 520 38,000  Level FlightAware ADS-B
Fri 02:23:02 PM 39.4900 -93.2900 262° West 451 519 38,000  Level FlightAware ADS-B
Fri 02:23:42 PM 39.4780 -93.3980 262° West 451 519 38,000  Level FlightAware ADS-B
Fri 02:24:22 PM 39.4660 -93.5050 262° West 451 519 38,000  Level FlightAware ADS-B
Fri 02:25:07 PM 39.4520 -93.6220 261° West 451 519 38,000  Level FlightAware ADS-B
Fri 02:25:47 PM 39.4400 -93.7300 262° West 452 520 38,000  Level FlightAware ADS-B
Fri 02:26:32 PM 39.4260 -93.8520 262° West 452 520 38,000  Level FlightAware ADS-B
Fri 02:27:12 PM 39.4130 -93.9600 261° West 454 522 38,000  Level FlightAware ADS-B
Fri 02:27:52 PM 39.4010 -94.0670 262° West 455 524 38,000  Level FlightAware ADS-B
Fri 02:28:37 PM 39.3870 -94.1840 261° West 455 524 38,000  Level FlightAware ADS-B
Fri 02:29:17 PM 39.3740 -94.2920 261° West 455 524 38,000  Level FlightAware ADS-B
Fri 02:30:02 PM 39.3590 -94.4150 261° West 456 525 38,000  Level FlightAware ADS-B
Fri 02:30:42 PM 39.3460 -94.5240 261° West 457 526 38,000  Level FlightAware ADS-B
Fri 02:31:22 PM 39.3330 -94.6320 261° West 458 527 38,000  Level FlightAware ADS-B
Fri 02:32:07 PM 39.3180 -94.7510 261° West 458 527 38,000  Level FlightAware ADS-B
Fri 02:32:47 PM 39.3050 -94.8580 261° West 458 527 38,000  Level FlightAware ADS-B
Fri 02:33:32 PM 39.2890 -94.9830 261° West 459 528 38,000  Level FlightAware ADS-B
Fri 02:34:12 PM 39.2760 -95.0910 261° West 460 529 38,000  Level FlightAware ADS-B
Fri 02:34:52 PM 39.2620 -95.1990 261° West 462 532 38,000  Level FlightAware ADS-B
Fri 02:35:37 PM 39.2470 -95.3160 261° West 463 533 38,000  Level FlightAware ADS-B
Fri 02:36:17 PM 39.2430 -95.3450 260° West 463 533 38,000  Level FlightAware ADS-B
Fri 02:36:57 PM 39.2270 -95.4730 261° West 465 535 38,000  Level FlightAware ADS-B
Fri 02:37:42 PM 39.2100 -95.5990 260° West 467 537 38,000  Level FlightAware ADS-B
Fri 02:38:22 PM 39.1960 -95.7030 260° West 467 537 38,000  Level FlightAware ADS-B
Fri 02:39:07 PM 39.1790 -95.8350 261° West 467 537 38,000  Level FlightAware ADS-B
Fri 02:39:47 PM 39.1660 -95.9310 260° West 468 539 38,000  Level FlightAware ADS-B
Fri 02:40:32 PM 39.1390 -96.1250 260° West 467 537 38,000  Level FlightAware ADS-B
Fri 02:41:07 PM 39.1280 -96.2090 260° West 467 537 38,000  Level FlightAware ADS-B
Fri 02:41:47 PM 39.1150 -96.3020 260° West 467 537 38,000  Level FlightAware ADS-B
Fri 02:42:37 PM 39.0990 -96.4190 260° West 467 537 38,000  Level FlightAware ADS-B
Fri 02:43:17 PM 39.0860 -96.5120 260° West 467 537 38,000  Level FlightAware ADS-B
Fri 02:43:57 PM 39.0740 -96.6050 261° West 467 537 38,000  Level FlightAware ADS-B
Fri 02:44:37 PM 39.0610 -96.6980 260° West 467 537 38,000  Level FlightAware ADS-B
Fri 02:45:17 PM 39.0480 -96.7920 260° West 467 537 38,000  Level FlightAware ADS-B
Fri 02:46:07 PM 39.0320 -96.9080 260° West 467 537 38,000  Level FlightAware ADS-B
Fri 02:46:47 PM 39.0190 -97.0010 260° West 467 537 38,000  Level FlightAware ADS-B
Fri 02:47:27 PM 39.0070 -97.0940 261° West 467 537 38,000  Level FlightAware ADS-B
Fri 02:48:07 PM 38.9940 -97.1870 260° West 467 537 38,000  Level FlightAware ADS-B
Fri 02:48:57 PM 38.9450 -97.4910 258° West 468 539 38,000  Level FlightAware ADS-B
Fri 02:49:47 PM 38.9240 -97.6320 259° West 468 539 38,000  Level FlightAware ADS-B
Fri 02:50:32 PM 38.9090 -97.7410 260° West 468 539 38,000  Level FlightAware ADS-B
Fri 02:51:12 PM 38.8960 -97.8340 260° West 468 539 38,000  Level FlightAware ADS-B
Fri 02:51:52 PM 38.8830 -97.9270 260° West 468 539 38,000  Level FlightAware ADS-B
Fri 02:52:32 PM 38.8700 -98.0210 260° West 468 539 38,000  Level FlightAware ADS-B
Fri 02:53:22 PM 38.8540 -98.1370 260° West 468 539 38,000  Level FlightAware ADS-B
Fri 02:54:02 PM 38.8410 -98.2300 260° West 468 539 38,000  Level FlightAware ADS-B
Fri 02:54:42 PM 38.8290 -98.3230 261° West 468 539 38,000  Level FlightAware ADS-B
Fri 02:55:22 PM 38.8160 -98.4160 260° West 468 539 38,000  Level FlightAware ADS-B
Fri 02:56:02 PM 38.8030 -98.5090 260° West 468 539 38,000  Level FlightAware ADS-B
Fri 02:56:52 PM 38.7870 -98.6250 260° West 468 539 38,000  Level FlightAware ADS-B
Fri 02:57:32 PM 38.7740 -98.7180 260° West 468 539 38,000  Level FlightAware ADS-B
Fri 02:58:12 PM 38.7610 -98.8110 260° West 468 539 38,000  Level FlightAware ADS-B
Fri 02:58:52 PM 38.7490 -98.9040 261° West 468 539 38,000  Level FlightAware ADS-B
Fri 02:59:32 PM 38.7360 -98.9970 260° West 468 539 38,000  Level FlightAware ADS-B
Fri 03:00:22 PM 38.7044 -99.3389 260° West 458 527 38,000  Level Denver Center
Fri 03:01:24 PM 38.6800 -99.5181 260° West 459 528 38,000  Level Denver Center
Fri 03:02:26 PM 38.6592 -99.6714 260° West 459 528 38,000  Level Denver Center
Fri 03:03:28 PM 38.6336 -99.8492 260° West 457 526 38,000  Level Denver Center
Fri 03:04:30 PM 38.6111 -100.0000 259° West 455 524 38,000  Level Denver Center
Fri 03:05:32 PM 38.5864 -100.1758 260° West 453 521 38,000  Level Denver Center
Fri 03:06:34 PM 38.5650 -100.3269 260° West 453 521 38,000  Level Denver Center
Fri 03:07:36 PM 38.5392 -100.5019 259° West 451 519 38,000  Level Denver Center
Fri 03:08:38 PM 38.5178 -100.6511 260° West 450 518 38,000  Level Denver Center
Fri 03:14:07 PM 38.3860 -101.5160 260° West 444 511 38,000  Level FlightAware ADS-B
Fri 03:14:54 PM 38.3667 -101.6420 259° West 444 511 38,000  Level FlightAware ADS-B
Fri 03:15:24 PM 38.3545 -101.7190 259° West 444 511 38,000  Level FlightAware ADS-B
Fri 03:15:54 PM 38.3421 -101.7970 259° West 444 511 38,000  Level FlightAware ADS-B
Fri 03:16:25 PM 38.3295 -101.8760 259° West 444 511 38,000  Level FlightAware ADS-B
Fri 03:16:56 PM 38.3172 -101.9530 259° West 444 511 38,000  Level FlightAware ADS-B
Fri 03:17:26 PM 38.3048 -102.0300 258° West 444 511 38,000  Level FlightAware ADS-B
Fri 03:18:00 PM 38.2906 -102.1190 259° West 444 511 38,000  Level FlightAware ADS-B
Fri 03:18:31 PM 38.2779 -102.1970 258° West 443 510 38,000  Level FlightAware ADS-B
Fri 03:19:02 PM 38.2650 -102.2760 258° West 443 510 38,000  Level FlightAware ADS-B
Fri 03:19:33 PM 38.2520 -102.3550 258° West 442 509 38,000  Level FlightAware ADS-B
Fri 03:20:05 PM 38.2389 -102.4350 258° West 441 507 38,000  Level FlightAware ADS-B
Fri 03:20:36 PM 38.2259 -102.5140 258° West 441 507 38,000  Level FlightAware ADS-B
Fri 03:21:07 PM 38.2127 -102.5930 258° West 441 507 38,000  Level FlightAware ADS-B
Fri 03:21:31 PM 38.2024 -102.6540 258° West 442 509 38,000  Level FlightAware ADS-B
Fri 03:22:01 PM 38.1864 -102.7300 255° West 446 513 38,000  Level FlightAware ADS-B
Fri 03:22:18 PM 38.1764 -102.7700 252° West 448 516 38,000  Level FlightAware ADS-B
Fri 03:22:48 PM 38.1567 -102.8470 252° West 450 518 38,000  Level FlightAware ADS-B
Fri 03:23:18 PM 38.1370 -102.9220 252° West 450 518 38,000  Level FlightAware ADS-B
Fri 03:23:50 PM 38.1163 -103.0020 252° West 449 517 38,000  Level FlightAware ADS-B
Fri 03:24:20 PM 38.0967 -103.0780 252° West 449 517 38,000  Level FlightAware ADS-B
Fri 03:24:51 PM 38.0768 -103.1550 252° West 448 516 38,000  Level FlightAware ADS-B
Fri 03:25:22 PM 38.0571 -103.2310 252° West 447 514 38,000  Level FlightAware ADS-B
Fri 03:25:52 PM 38.0376 -103.3050 252° West 447 514 38,000  Level FlightAware ADS-B
Fri 03:26:22 PM 38.0182 -103.3800 252° West 446 513 38,000  Level FlightAware ADS-B
Fri 03:26:54 PM 37.9977 -103.4580 252° West 444 511 38,000  Level FlightAware ADS-B
Fri 03:27:24 PM 37.9783 -103.5320 252° West 441 507 38,000  Level FlightAware ADS-B
Fri 03:27:54 PM 37.9589 -103.6050 251° West 443 510 38,000  Level FlightAware ADS-B
Fri 03:28:25 PM 37.9384 -103.6830 252° West 445 512 38,000  Level FlightAware ADS-B
Fri 03:28:57 PM 37.9175 -103.7610 251° West 445 512 38,000  Level FlightAware ADS-B
Fri 03:29:27 PM 37.8976 -103.8360 251° West 444 511 38,000  Level FlightAware ADS-B
Fri 03:29:59 PM 37.8767 -103.9140 251° West 443 510 38,000  Level FlightAware ADS-B
Fri 03:30:31 PM 37.8557 -103.9930 251° West 443 510 38,000  Level FlightAware ADS-B
Fri 03:31:01 PM 37.8358 -104.0670 251° West 443 510 38,000  Level FlightAware ADS-B
Fri 03:31:32 PM 37.8159 -104.1410 251° West 444 511 38,000  Level FlightAware ADS-B
Fri 03:32:05 PM 37.7936 -104.2230 251° West 443 510 38,000  Level FlightAware ADS-B
Fri 03:32:40 PM 37.7710 -104.3060 251° West 442 509 38,000  Level FlightAware ADS-B
Fri 03:33:11 PM 37.7503 -104.3830 251° West 440 506 38,000  Level FlightAware ADS-B
Fri 03:34:14 PM 37.7085 -104.5360 251° West 439 505 38,000  Level FlightAware ADS-B
Fri 03:34:49 PM 37.6854 -104.6200 251° West 439 505 38,000  Level FlightAware ADS-B
Fri 03:35:21 PM 37.6640 -104.6980 251° West 439 505 38,000  Level FlightAware ADS-B
Fri 03:35:51 PM 37.6439 -104.7700 251° West 439 505 38,000  Level FlightAware ADS-B
Fri 03:36:39 PM 37.6119 -104.8860 251° West 440 506 38,000  Level FlightAware ADS-B
Fri 03:37:15 PM 37.5876 -104.9730 251° West 441 507 38,000  Level FlightAware ADS-B
Fri 03:37:46 PM 37.5669 -105.0470 251° West 440 506 38,000  Level FlightAware ADS-B
Fri 03:38:31 PM 37.5368 -105.1550 251° West 439 505 38,000  Level FlightAware ADS-B
Fri 03:39:03 PM 37.5149 -105.2330 251° West 438 504 38,000  Level FlightAware ADS-B
Fri 03:39:48 PM 37.4844 -105.3410 250° West 437 503 38,000  Level FlightAware ADS-B
Fri 03:40:21 PM 37.4626 -105.4180 250° West 436 502 38,000  Level FlightAware ADS-B
Fri 03:40:53 PM 37.4410 -105.4940 250° West 435 501 38,000  Level FlightAware ADS-B
Fri 03:41:42 PM 37.4074 -105.6120 250° West 436 502 38,000  Level FlightAware ADS-B
Fri 03:42:12 PM 37.3869 -105.6840 250° West 436 502 38,000  Level FlightAware ADS-B
Fri 03:43:59 PM 37.3176 -105.9390 251° West 436 502 38,000  Level FlightAware ADS-B
Fri 03:45:14 PM 37.2744 -106.1097 251° West 433 498 38,000  Level Denver Center
Fri 03:46:16 PM 37.2394 -106.2461 252° West 432 497 38,000  Level Denver Center
Fri 03:47:18 PM 37.1983 -106.4047 252° West 429 494 38,000  Level Denver Center
Fri 03:48:20 PM 37.1619 -106.5439 252° West 436 502 38,000  Level Denver Center
Fri 03:49:34 PM 37.1214 -106.7042 252° West 433 498 38,000  Level Denver Center
Fri 03:50:37 PM 37.0783 -106.8664 252° West 438 504 38,000  Level Denver Center
Fri 03:51:39 PM 37.0367 -107.0267 252° West 434 499 38,000  Level Denver Center
Fri 03:52:41 PM 37.0067 -107.1417 252° West 436 502 38,000  Level Denver Center
Fri 03:53:43 PM 36.9556 -107.3253 251° West 438 504 38,000  Level Denver Center
Fri 03:54:45 PM 36.9211 -107.4639 253° West 436 502 38,000  Level Denver Center
Fri 03:55:47 PM 36.8769 -107.6244 251° West 436 502 38,000  Level Denver Center
Fri 03:56:49 PM 36.8397 -107.7622 251° West 438 504 38,000  Level Denver Center
Fri 03:57:51 PM 36.7972 -107.9222 252° West 436 502 38,000  Level Denver Center
Fri 03:58:53 PM 36.7603 -108.0606 252° West 438 504 38,000  Level Denver Center
Fri 03:59:56 PM 36.7253 -108.2217 255° West 434 499 38,000  Level Denver Center
Fri 04:00:58 PM 36.7003 -108.3603 257° West 430 495 38,000  Level Denver Center
Fri 04:02:00 PM 36.6708 -108.5233 257° West 431 496 38,000  Level Denver Center
Fri 04:03:02 PM 36.6442 -108.6622 257° West 434 499 38,000  Level Denver Center
Fri 04:04:16 PM 36.6136 -108.8225 257° West 430 495 38,000  Level Denver Center
Fri 04:05:19 PM 36.5828 -108.9831 257° West 430 495 38,000  Level Denver Center
Fri 04:06:21 PM 36.5528 -109.1456 257° West 434 499 38,000  Level Denver Center
Fri 04:07:23 PM 36.5253 -109.2842 256° West 434 499 38,000  Level Denver Center
Fri 04:13:22 PM 36.3500 -110.1620 256° West 433 498 38,000  Level FlightAware ADS-B
Fri 04:14:07 PM 36.3270 -110.2810 257° West 433 498 38,000  Level FlightAware ADS-B
Fri 04:14:52 PM 36.3050 -110.3910 256° West 432 497 38,000  Level FlightAware ADS-B
Fri 04:15:32 PM 36.2860 -110.4820 256° West 432 497 38,000  Level FlightAware ADS-B
Fri 04:16:17 PM 36.2640 -110.5900 256° West 431 496 38,000  Level FlightAware ADS-B
Fri 04:16:59 PM 36.2430 -110.6920 256° West 430 495 38,000  Level FlightAware ADS-B
Fri 04:17:38 PM 36.2230 -110.7860 255° West 430 495 38,000  Level FlightAware ADS-B
Fri 04:18:23 PM 36.2010 -110.8900 255° West 430 495 38,000  Level FlightAware ADS-B
Fri 04:19:03 PM 36.1810 -110.9870 256° West 430 495 38,000  Level FlightAware ADS-B
Fri 04:19:43 PM 36.1610 -111.0800 255° West 431 496 38,000  Level FlightAware ADS-B
Fri 04:20:28 PM 36.1380 -111.1900 256° West 431 496 38,000  Level FlightAware ADS-B
Fri 04:21:08 PM 36.1180 -111.2870 256° West 430 495 38,000  Level FlightAware ADS-B
Fri 04:21:48 PM 36.0980 -111.3820 255° West 429 494 38,000  Level FlightAware ADS-B
Fri 04:22:33 PM 36.0760 -111.4870 255° West 428 493 38,000  Level FlightAware ADS-B
Fri 04:23:13 PM 36.0560 -111.5810 255° West 428 493 38,000  Level FlightAware ADS-B
Fri 04:23:58 PM 36.0340 -111.6860 256° West 427 491 38,000  Level FlightAware ADS-B
Fri 04:24:38 PM 36.0140 -111.7800 255° West 427 491 38,000  Level FlightAware ADS-B
Fri 04:25:23 PM 35.9910 -111.8880 255° West 428 493 38,000  Level FlightAware ADS-B
Fri 04:26:03 PM 35.9710 -111.9830 255° West 428 493 38,000  Level FlightAware ADS-B
Fri 04:26:43 PM 35.9510 -112.0740 255° West 428 493 38,000  Level FlightAware ADS-B
Fri 04:27:28 PM 35.9290 -112.1780 255° West 427 491 38,000  Level FlightAware ADS-B
Fri 04:28:08 PM 35.9090 -112.2720 255° West 427 491 38,000  Level FlightAware ADS-B
Fri 04:28:53 PM 35.8850 -112.3820 255° West 427 491 38,000  Level FlightAware ADS-B
Fri 04:29:33 PM 35.8640 -112.4780 255° West 427 491 38,000  Level FlightAware ADS-B
Fri 04:30:18 PM 35.8410 -112.5800 254° West 427 491 38,000  Level FlightAware ADS-B
Fri 04:30:58 PM 35.8190 -112.6740 254° West 429 494 38,000  Level FlightAware ADS-B
Fri 04:31:38 PM 35.7880 -112.7660 247° West 431 496 38,000  Level FlightAware ADS-B
Fri 04:32:23 PM 35.7520 -112.8640 246° West 431 496 38,000  Level FlightAware ADS-B
Fri 04:33:03 PM 35.7190 -112.9540 246° West 430 495 38,000  Level FlightAware ADS-B
Fri 04:33:43 PM 35.6850 -113.0460 246° West 430 495 38,000  Level FlightAware ADS-B
Fri 04:34:28 PM 35.6480 -113.1450 245° Southwest 430 495 38,000  Level FlightAware ADS-B
Fri 04:35:08 PM 35.6160 -113.2330 246° West 430 495 38,000  Level FlightAware ADS-B
Fri 04:35:53 PM 35.5770 -113.3360 245° Southwest 431 496 38,000  Level FlightAware ADS-B
Fri 04:36:33 PM 35.5440 -113.4240 245° Southwest 431 496 38,000  Level FlightAware ADS-B
Fri 04:37:13 PM 35.5100 -113.5140 245° Southwest 430 495 38,000  Level FlightAware ADS-B
Fri 04:37:58 PM 35.4750 -113.6100 246° West 429 494 38,000  Level FlightAware ADS-B
Fri 04:38:38 PM 35.4420 -113.6980 245° Southwest 429 494 38,000  Level FlightAware ADS-B
Fri 04:39:18 PM 35.4100 -113.7840 245° Southwest 429 494 38,000  Level FlightAware ADS-B
Fri 04:40:03 PM 35.3740 -113.8820 246° West 428 493 38,000  Level FlightAware ADS-B
Fri 04:40:48 PM 35.3350 -113.9860 245° Southwest 428 493 38,000  Level FlightAware ADS-B
Fri 04:41:28 PM 35.3020 -114.0740 245° Southwest 427 491 38,000  Level FlightAware ADS-B
Fri 04:42:08 PM 35.2690 -114.1600 245° Southwest 426 490 38,000  Level FlightAware ADS-B
Fri 04:42:53 PM 35.2310 -114.2610 245° Southwest 425 489 38,000  Level FlightAware ADS-B
Fri 04:43:33 PM 35.1990 -114.3480 246° West 424 488 38,000  Level FlightAware ADS-B
Fri 04:44:18 PM 35.1620 -114.4450 245° Southwest 421 484 38,000  Level FlightAware ADS-B
Fri 04:44:58 PM 35.1300 -114.5300 245° Southwest 418 481 38,000  Level FlightAware ADS-B
Fri 04:45:38 PM 35.0970 -114.6160 245° Southwest 417 480 38,000  Level FlightAware ADS-B
Fri 04:46:23 PM 35.0600 -114.7130 245° Southwest 416 479 38,000  Level FlightAware ADS-B
Fri 04:47:03 PM 35.0290 -114.7930 245° Southwest 416 479 38,000  Level FlightAware ADS-B
Fri 04:47:48 PM 34.9910 -114.8910 245° Southwest 416 479 38,000  Level FlightAware ADS-B
Fri 04:48:28 PM 34.9580 -114.9770 245° Southwest 415 478 38,000  Level FlightAware ADS-B
Fri 04:49:08 PM 34.9260 -115.0610 245° Southwest 414 476 38,000  Level FlightAware ADS-B
Fri 04:49:53 PM 34.8880 -115.1590 245° Southwest 413 475 38,000  Level FlightAware ADS-B
Fri 04:50:33 PM 34.8560 -115.2400 244° Southwest 412 474 38,000  Level FlightAware ADS-B
Fri 04:51:13 PM 34.8230 -115.3250 245° Southwest 412 474 38,000  Level FlightAware ADS-B
Fri 04:51:58 PM 34.7880 -115.4160 245° Southwest 412 474 38,000  Level FlightAware ADS-B
Fri 04:52:38 PM 34.7540 -115.5010 244° Southwest 414 476 38,000  Level FlightAware ADS-B
Fri 04:53:23 PM 34.7170 -115.5960 245° Southwest 415 478 38,000  Level FlightAware ADS-B
Fri 04:54:03 PM 34.6840 -115.6790 244° Southwest 415 478 38,000  Level FlightAware ADS-B
Fri 04:54:48 PM 34.6470 -115.7740 245° Southwest 415 478 38,000  Level FlightAware ADS-B
Fri 04:55:28 PM 34.6140 -115.8570 244° Southwest 415 478 38,000  Level FlightAware ADS-B
Fri 04:56:08 PM 34.5830 -115.9350 244° Southwest 414 476 38,000 -847 Level FlightAware ADS-B
Fri 04:56:53 PM 34.5420 -116.0380 244° Southwest 422 486 36,800 -1,553 Descending FlightAware ADS-B
Fri 04:57:33 PM 34.5080 -116.1240 244° Southwest 428 493 35,800 -1,341 Descending FlightAware ADS-B
Fri 04:58:18 PM 34.4700 -116.2180 244° Southwest 433 498 34,900 -1,412 Descending FlightAware ADS-B
Fri 04:58:58 PM 34.4350 -116.3070 245° Southwest 441 507 33,800 -1,650 Descending FlightAware ADS-B
Fri 04:59:38 PM 34.3980 -116.3980 244° Southwest 450 518 32,700 -1,694 Descending FlightAware ADS-B
Fri 05:00:23 PM 34.3550 -116.5030 244° Southwest 450 518 31,400 -2,682 Descending FlightAware ADS-B
Fri 05:01:03 PM 34.3190 -116.5930 244° Southwest 457 526 28,900 -3,388 Descending FlightAware ADS-B
Fri 05:01:48 PM 34.2780 -116.6930 244° Southwest 447 514 26,600 -2,400 Descending FlightAware ADS-B
Fri 05:02:28 PM 34.2420 -116.7810 244° Southwest 422 486 25,500 -1,425 Descending FlightAware ADS-B
Fri 05:03:08 PM 34.2110 -116.8590 244° Southwest 394 453 24,700 -1,976 Descending FlightAware ADS-B
Fri 05:03:53 PM 34.1730 -116.9510 243° Southwest 376 433 22,700 -2,753 Descending FlightAware ADS-B
Fri 05:04:33 PM 34.1440 -117.0230 244° Southwest 371 427 20,800 -2,824 Descending FlightAware ADS-B
Fri 05:05:18 PM 34.1100 -117.1060 244° Southwest 362 417 18,700 -2,612 Descending FlightAware ADS-B
Fri 05:05:58 PM 34.0780 -117.1760 241° Southwest 344 396 17,100 -2,100 Descending FlightAware ADS-B
Fri 05:06:38 PM 34.0520 -117.2390 244° Southwest 312 359 15,900 -1,765 Descending FlightAware ADS-B
Fri 05:07:23 PM 34.0410 -117.3180 260° West 306 352 14,600 -1,400 Descending FlightAware ADS-B
Fri 05:08:08 PM 34.0350 -117.3910 264° West 307 353 13,800 -1,125 Descending FlightAware ADS-B
Fri 05:08:43 PM 34.0290 -117.4520 263° West 307 353 13,100 -1,200 Descending FlightAware ADS-B
Fri 05:09:28 PM 34.0220 -117.5250 263° West 304 350 12,200 -1,333 Descending FlightAware ADS-B
Fri 05:10:13 PM 34.0140 -117.6030 263° West 299 344 11,100 -1,482 Descending FlightAware ADS-B
Fri 05:10:53 PM 34.0080 -117.6680 264° West 307 353 10,100 -943 Descending FlightAware ADS-B
Fri 05:11:23 PM 34.0030 -117.7220 264° West 305 351 10,000 -764 Descending FlightAware ADS-B
Fri 05:11:48 PM 33.9990 -117.7610 263° West 302 348 9,400 -1,527 Descending FlightAware ADS-B
Fri 05:12:18 PM 33.9940 -117.8120 263° West 302 348 8,600 -1,418 Descending FlightAware ADS-B
Fri 05:12:43 PM 33.9900 -117.8550 264° West 298 343 8,100 -1,350 Descending FlightAware ADS-B
Fri 05:12:58 PM 33.9880 -117.8780 264° West 297 342 7,700 -1,333 Descending FlightAware ADS-B
Fri 05:13:28 PM 33.9830 -117.9270 263° West 292 336 7,100 -1,200 Descending FlightAware ADS-B
Fri 05:13:58 PM 33.9780 -117.9750 263° West 286 329 6,500 -1,200 Descending FlightAware ADS-B
Fri 05:14:23 PM 33.9740 -118.0160 263° West 278 320 6,000 -982 Descending FlightAware ADS-B
Fri 05:14:53 PM 33.9700 -118.0590 264° West 252 290 5,600 -873 Descending FlightAware ADS-B
Fri 05:15:18 PM 33.9670 -118.0920 264° West 239 275 5,200 -1,091 Descending FlightAware ADS-B
Fri 05:15:48 PM 33.9620 -118.1310 261° West 240 276 4,600 -1,091 Descending FlightAware ADS-B
Fri 05:16:13 PM 33.9590 -118.1650 264° West 239 275 4,200 -982 Descending FlightAware ADS-B
Fri 05:16:43 PM 33.9550 -118.2030 263° West 226 260 3,700 -1,000 Descending FlightAware ADS-B
Fri 05:17:13 PM 33.9510 -118.2380 262° West 203 234 3,200 -993 Descending FlightAware ADS-B
Fri 05:19:08 PM 33.9420 -118.3390 264° West 165 190 1,300 -892 Descending FlightAware ADS-B
Fri 05:20:28 PM 33.9360 -118.3950 263° West 128 147 300 -750 Descending FlightAware ADS-B

Login

Don't have an account? Register now (free) for customized features, flight alerts, and more!